Terminal Aerodrome Forecast
Issued by NWS Twin Cities, MN

Home | Current Version | Previous Version | Text Only | Print | Product List | Glossary On
Versions: 1 2 3 4 5 6 7 8 9 10 11 12 13 14 15 16 17 18 19 20 21 22 23 24 25 26 27 28
000
FTUS43 KMPX 111556 AAC
TAFMSP
TAF AMD
KMSP 111556Z 1116/1218 32011KT 6SM -SHSN BR BKN025 OVC040
      TEMPO 1117/1119 2SM -SHSN BR BKN015 OVC025
     FM111900 33019G32KT P6SM BKN028
     FM120000 32017G28KT P6SM FEW030
     FM120500 31012G18KT P6SM SKC=

USA.gov is the U.S. government's official web portal to all federal, state and local government web resources and services.